createdAt,value
2023-03-21T00:01:41.675Z,101183.22
2023-03-21T00:04:08.200Z,101168.28
2023-03-21T00:06:36.213Z,101173.06
2023-03-21T00:09:02.850Z,101175.59
2023-03-21T00:11:29.306Z,101177.97
2023-03-21T00:14:02.244Z,101172.75
2023-03-21T00:19:17.811Z,101169.91
2023-03-21T00:22:03.202Z,101172.44
2023-03-21T00:24:30.071Z,101169.25
2023-03-21T00:27:03.464Z,101166.38
2023-03-21T00:29:42.464Z,101154.66
2023-03-21T00:32:09.162Z,101163.88
2023-03-21T00:34:43.588Z,101151.81
2023-03-21T00:37:21.057Z,101161.16
2023-03-21T00:39:49.372Z,101152.28
2023-03-21T00:42:16.476Z,101146.41
2023-03-21T00:44:44.791Z,101152.13
2023-03-21T00:47:12.528Z,101145.63
2023-03-21T00:49:39.133Z,101147.38
2023-03-21T00:52:17.073Z,101151.81
2023-03-21T00:54:51.445Z,101141.69
2023-03-21T00:57:20.201Z,101147.38
2023-03-21T00:59:46.779Z,101138.81
2023-03-21T01:02:22.534Z,101134.38
2023-03-21T01:04:50.421Z,101142.63
2023-03-21T01:07:16.854Z,101135.16
2023-03-21T01:09:43.846Z,101134.06
2023-03-21T01:12:10.583Z,101131.22
2023-03-21T01:14:37.203Z,101124.38
2023-03-21T01:17:04.145Z,101127.06
2023-03-21T01:19:44.738Z,101127.53
2023-03-21T01:22:17.040Z,101131.22
2023-03-21T01:24:53.791Z,101134.06
2023-03-21T01:27:23.520Z,101123.91
2023-03-21T01:29:50.660Z,101127.22
2023-03-21T01:32:17.088Z,101120.75
2023-03-21T01:34:43.589Z,101123.59
2023-03-21T01:37:10.186Z,101121.06
2023-03-21T01:39:43.991Z,101128.84
2023-03-21T01:42:13.476Z,101121.53
2023-03-21T01:44:55.304Z,101114.34
2023-03-21T01:47:22.224Z,101115.03
2023-03-21T01:50:12.443Z,101119.94
2023-03-21T01:52:46.659Z,101113.09
2023-03-21T01:55:18.937Z,101118.34
2023-03-21T01:58:06.512Z,101113.72
2023-03-21T02:00:41.570Z,101112.44
2023-03-21T02:03:34.860Z,101105.63
2023-03-21T02:06:16.807Z,101110.72
2023-03-21T02:08:48.686Z,101103.88
2023-03-21T02:11:16.911Z,101098.50
2023-03-21T02:13:43.729Z,101107.06
2023-03-21T02:16:28.723Z,101096.63
2023-03-21T02:19:01.833Z,101095.63
2023-03-21T02:21:36.009Z,101086.16
2023-03-21T02:24:14.509Z,101095.03
2023-03-21T02:27:06.944Z,101093.41
2023-03-21T02:30:04.585Z,101089.31
2023-03-21T02:33:00.690Z,101078.06
2023-03-21T02:35:56.847Z,101077.91
2023-03-21T02:38:49.111Z,101082.94
2023-03-21T02:41:29.828Z,101072.34
2023-03-21T02:44:27.361Z,101079.16
2023-03-21T02:47:06.340Z,101076.94
2023-03-21T02:49:46.817Z,101079.78
2023-03-21T02:52:35.516Z,101085.81
2023-03-21T02:55:13.529Z,101087.09
2023-03-21T02:57:48.732Z,101078.19
2023-03-21T03:00:30.528Z,101078.84
2023-03-21T03:03:08.706Z,101080.44
2023-03-21T03:05:48.449Z,101080.44
2023-03-21T03:08:38.455Z,101074.75
2023-03-21T03:11:24.196Z,101074.88
2023-03-21T03:14:25.243Z,101073.47
2023-03-21T03:17:07.529Z,101073.16
2023-03-21T03:19:52.859Z,101067.91
2023-03-21T03:22:27.822Z,101073.16
2023-03-21T03:25:17.725Z,101067.44
2023-03-21T03:27:54.026Z,101063.34
2023-03-21T03:30:23.816Z,101064.13
2023-03-21T03:32:59.209Z,101051.28
2023-03-21T03:35:26.748Z,101063.34
2023-03-21T03:37:57.936Z,101066.19
2023-03-21T03:40:30.193Z,101051.28
2023-03-21T03:43:20.876Z,101061.72
2023-03-21T03:45:51.821Z,101059.19
2023-03-21T03:48:29.865Z,101052.72
2023-03-21T03:51:07.247Z,101051.09
2023-03-21T03:53:58.946Z,101053.97
2023-03-21T03:56:28.758Z,101048.72
2023-03-21T03:58:57.128Z,101056.34
2023-03-21T04:01:39.358Z,101043.03
2023-03-21T04:04:13.223Z,101045.41
2023-03-21T04:06:41.539Z,101054.78
2023-03-21T04:09:19.310Z,101047.00
2023-03-21T04:11:48.209Z,101043.69
2023-03-21T04:14:15.293Z,101040.50
2023-03-21T04:16:42.840Z,101043.38
2023-03-21T04:19:09.384Z,101047.00
2023-03-21T04:21:36.571Z,101037.31
2023-03-21T04:24:03.891Z,101041.28
2023-03-21T04:26:33.022Z,101046.53
2023-03-21T04:29:22.655Z,101042.09
2023-03-21T04:32:16.215Z,101040.50
2023-03-21T04:34:49.844Z,101040.19
2023-03-21T04:37:19.390Z,101041.47
2023-03-21T04:39:47.524Z,101028.75
2023-03-21T04:42:15.644Z,101037.31
2023-03-21T04:44:42.111Z,101042.09
2023-03-21T04:47:08.744Z,101035.59
2023-03-21T04:49:36.205Z,101035.28
2023-03-21T04:52:02.895Z,101040.50
2023-03-21T04:54:29.391Z,101034.16
2023-03-21T04:56:56.693Z,101040.50
2023-03-21T04:59:26.515Z,101043.84
2023-03-21T05:01:53.568Z,101038.91
2023-03-21T05:04:21.061Z,101048.25
2023-03-21T05:06:47.554Z,101041.28
2023-03-21T05:09:16.155Z,101045.88
2023-03-21T05:11:42.837Z,101033.53
2023-03-21T05:14:15.542Z,101037.97
2023-03-21T05:16:44.926Z,101029.25
2023-03-21T05:19:13.851Z,101030.84
2023-03-21T05:21:42.628Z,101035.59
2023-03-21T05:24:16.987Z,101030.06
2023-03-21T05:26:50.076Z,101042.09
2023-03-21T05:29:19.428Z,101037.66
2023-03-21T05:31:52.511Z,101035.59
2023-03-21T05:34:19.888Z,101036.38
2023-03-21T05:36:46.658Z,101029.09
2023-03-21T05:39:13.378Z,101037.19
2023-03-21T05:41:45.263Z,101036.38
2023-03-21T05:44:11.787Z,101031.97
2023-03-21T05:46:39.355Z,101029.09
2023-03-21T05:49:06.301Z,101022.28
2023-03-21T05:51:32.999Z,101031.63
2023-03-21T05:53:59.487Z,101029.88
2023-03-21T05:56:25.967Z,101021.81
2023-03-21T05:58:57.273Z,101030.69
2023-03-21T06:01:24.759Z,101034.34
2023-03-21T06:03:59.959Z,101036.38
2023-03-21T06:06:28.315Z,101032.75
2023-03-21T06:08:56.921Z,101031.47
2023-03-21T06:11:27.082Z,101031.47
2023-03-21T06:14:12.792Z,101029.09
2023-03-21T06:16:40.330Z,101031.47
2023-03-21T06:19:06.900Z,101040.81
2023-03-21T06:21:48.925Z,101034.81
2023-03-21T06:24:15.585Z,101037.97
2023-03-21T06:26:42.850Z,101040.81
2023-03-21T06:29:09.853Z,101031.47
2023-03-21T06:31:36.843Z,101038.28
2023-03-21T06:34:04.702Z,101029.41
2023-03-21T06:36:32.333Z,101030.69
2023-03-21T06:38:59.011Z,101022.13
2023-03-21T06:41:25.513Z,101034.19
2023-03-21T06:44:03.651Z,101030.53
2023-03-21T06:46:35.375Z,101030.53
2023-03-21T06:49:03.380Z,101031.31
2023-03-21T06:51:30.741Z,101031.47
2023-03-21T06:54:06.428Z,101028.47
2023-03-21T06:56:45.324Z,101027.19
2023-03-21T06:59:15.828Z,101031.63
2023-03-21T07:01:52.675Z,101025.94
2023-03-21T07:04:19.181Z,101021.97
2023-03-21T07:06:46.083Z,101027.53
2023-03-21T07:09:12.834Z,101019.75
2023-03-21T07:11:39.309Z,101023.38
2023-03-21T07:14:06.458Z,101018.84
2023-03-21T07:16:33.245Z,101015.97
2023-03-21T07:18:59.736Z,101019.13
2023-03-21T07:21:26.378Z,101014.81
2023-03-21T07:23:53.569Z,101022.81
2023-03-21T07:26:20.708Z,101025.97
2023-03-21T07:28:47.231Z,101025.97
2023-03-21T07:31:16.217Z,101030.41
2023-03-21T07:33:43.414Z,101033.28
2023-03-21T07:36:12.931Z,101027.88
2023-03-21T07:38:39.643Z,101020.56
2023-03-21T07:41:06.373Z,101023.44
2023-03-21T07:43:37.091Z,101022.78
2023-03-21T07:46:09.124Z,101025.63
2023-03-21T07:48:35.976Z,101024.69
2023-03-21T07:51:02.476Z,101018.03
2023-03-21T07:53:28.951Z,101018.97
2023-03-21T07:55:56.591Z,101024.56
2023-03-21T07:58:27.151Z,101031.81
2023-03-21T08:00:55.616Z,101031.34
2023-03-21T08:03:23.926Z,101027.72
2023-03-21T08:05:50.824Z,101026.75
2023-03-21T08:08:17.243Z,101020.41
2023-03-21T08:10:44.370Z,101012.16
2023-03-21T08:13:11.121Z,101025.81
2023-03-21T08:15:38.060Z,101022.47
2023-03-21T08:18:04.814Z,101020.88
2023-03-21T08:20:31.235Z,101018.03
2023-03-21T08:22:57.717Z,101014.22
2023-03-21T08:25:24.209Z,101010.59
2023-03-21T08:27:51.561Z,101015.00
2023-03-21T08:30:21.520Z,101014.84
2023-03-21T08:32:48.838Z,101011.97
2023-03-21T08:35:17.158Z,101013.88
2023-03-21T08:37:43.786Z,101019.59
2023-03-21T08:40:17.528Z,101013.09
2023-03-21T08:42:47.013Z,101005.31
2023-03-21T08:45:15.763Z,101006.13
2023-03-21T08:47:42.922Z,101004.84
2023-03-21T08:50:12.579Z,101011.97
2023-03-21T08:52:39.032Z,101019.28
2023-03-21T08:55:05.885Z,101019.59
2023-03-21T08:57:32.642Z,101015.47
2023-03-21T08:59:59.105Z,101025.13
2023-03-21T09:02:25.753Z,101011.81
2023-03-21T09:04:58.894Z,101017.69
2023-03-21T09:07:25.886Z,101026.25
2023-03-21T09:10:08.137Z,101011.97
2023-03-21T09:12:40.989Z,101013.06
2023-03-21T09:15:09.696Z,101013.56
2023-03-21T09:17:36.402Z,101011.31
2023-03-21T09:20:05.194Z,101019.88
2023-03-21T09:22:32.445Z,101014.47
2023-03-21T09:24:59.288Z,101015.28
2023-03-21T09:27:28.103Z,101017.66
2023-03-21T09:29:54.735Z,100998.16
2023-03-21T09:32:21.350Z,101009.88
2023-03-21T09:34:48.459Z,101011.00
2023-03-21T09:37:15.447Z,101000.84
2023-03-21T09:39:42.950Z,101002.44
2023-03-21T09:42:59.901Z,100997.03
2023-03-21T09:45:40.925Z,101006.06
2023-03-21T09:48:19.863Z,100995.25
2023-03-21T09:50:46.548Z,100997.63
2023-03-21T09:53:27.064Z,100992.72
2023-03-21T09:55:54.348Z,100993.50
2023-03-21T09:58:36.518Z,100986.19
2023-03-21T10:01:22.108Z,100989.69
2023-03-21T10:03:54.357Z,100983.31
2023-03-21T10:06:28.647Z,100981.25
2023-03-21T10:09:00.404Z,100983.16
2023-03-21T10:11:32.263Z,100987.13
2023-03-21T10:14:12.939Z,100985.53
2023-03-21T10:16:45.741Z,100988.53
2023-03-21T10:19:15.510Z,100992.16
2023-03-21T10:22:03.332Z,100987.22
2023-03-21T10:24:33.484Z,100974.53
2023-03-21T10:27:02.541Z,100982.44
2023-03-21T10:29:42.216Z,100978.31
2023-03-21T10:32:17.356Z,100979.44
2023-03-21T10:34:48.432Z,100976.41
2023-03-21T10:37:16.759Z,100977.19
2023-03-21T10:39:46.743Z,100980.34
2023-03-21T10:42:24.899Z,100978.78
2023-03-21T10:44:53.937Z,100980.97
2023-03-21T10:47:24.595Z,100969.53
2023-03-21T10:50:08.831Z,100974.63
2023-03-21T10:52:38.718Z,100973.00
2023-03-21T10:55:28.693Z,100962.22
2023-03-21T10:58:00.021Z,100969.66
2023-03-21T11:00:37.812Z,100963.16
2023-03-21T11:03:05.391Z,100962.66
2023-03-21T11:05:38.572Z,100965.03
2023-03-21T11:08:07.106Z,100965.81
2023-03-21T11:10:37.910Z,100947.13
2023-03-21T11:13:08.832Z,100954.25
2023-03-21T11:15:54.814Z,100964.06
2023-03-21T11:18:24.568Z,100958.16
2023-03-21T11:20:52.741Z,100951.69
2023-03-21T11:23:21.005Z,100957.69
2023-03-21T11:25:50.503Z,100954.84
2023-03-21T11:28:25.167Z,100952.28
2023-03-21T11:31:03.641Z,100949.13
2023-03-21T11:33:38.412Z,100949.75
2023-03-21T11:36:27.141Z,100939.88
2023-03-21T11:39:02.507Z,100947.19
2023-03-21T11:41:33.874Z,100941.47
2023-03-21T11:44:01.707Z,100946.97
2023-03-21T11:46:31.285Z,100936.03
2023-03-21T11:48:59.762Z,100932.69
2023-03-21T11:51:44.555Z,100935.88
2023-03-21T11:54:38.152Z,100931.44
2023-03-21T11:57:38.474Z,100929.63
2023-03-21T12:00:18.122Z,100926.28
2023-03-21T12:03:16.960Z,100923.44
2023-03-21T12:05:53.371Z,100931.53
2023-03-21T12:08:32.922Z,100922.94
2023-03-21T12:11:25.381Z,100920.09
2023-03-21T12:14:22.763Z,100918.53
2023-03-21T12:17:06.397Z,100917.22
2023-03-21T12:19:51.608Z,100918.34
2023-03-21T12:22:46.817Z,100904.53
2023-03-21T12:25:27.756Z,100910.53
2023-03-21T12:28:33.404Z,100897.84
2023-03-21T12:31:20.016Z,100907.19
2023-03-21T12:34:10.512Z,100899.09
2023-03-21T12:37:01.706Z,100892.41
2023-03-21T12:39:34.494Z,100891.91
2023-03-21T12:42:44.282Z,100891.63
2023-03-21T12:45:26.010Z,100883.34
2023-03-21T12:48:03.561Z,100882.56
2023-03-21T12:50:38.677Z,100879.22
2023-03-21T12:53:29.584Z,100871.13
2023-03-21T12:56:01.627Z,100870.16
2023-03-21T12:58:29.902Z,100874.91
2023-03-21T13:01:01.367Z,100865.84
2023-03-21T13:03:52.211Z,100870.47
2023-03-21T13:06:24.070Z,100860.28
2023-03-21T13:09:05.117Z,100865.03
2023-03-21T13:11:32.986Z,100853.59
2023-03-21T13:14:14.950Z,100848.50
2023-03-21T13:16:48.121Z,100856.59
2023-03-21T13:19:37.906Z,100844.38
2023-03-21T13:22:21.078Z,100843.06
2023-03-21T13:24:49.924Z,100837.34
2023-03-21T13:27:34.675Z,100833.69
2023-03-21T13:30:06.577Z,100834.47
2023-03-21T13:32:41.861Z,100837.63
2023-03-21T13:35:27.367Z,100834.00
2023-03-21T13:37:58.853Z,100837.47
2023-03-21T13:40:43.482Z,100837.94
2023-03-21T13:43:34.993Z,100829.38
2023-03-21T13:46:26.682Z,100829.38
2023-03-21T13:48:58.884Z,100835.38
2023-03-21T13:51:29.071Z,100834.13
2023-03-21T13:54:17.636Z,100826.81
2023-03-21T13:56:46.971Z,100825.81
2023-03-21T13:59:34.867Z,100817.72
2023-03-21T14:02:14.432Z,100818.50
2023-03-21T14:04:54.193Z,100815.97
2023-03-21T14:07:33.298Z,100821.97
2023-03-21T14:10:05.023Z,100814.94
2023-03-21T14:12:42.214Z,100817.81
2023-03-21T14:15:20.964Z,100810.81
2023-03-21T14:17:54.126Z,100800.97
2023-03-21T14:20:33.110Z,100802.53
2023-03-21T14:22:59.743Z,100803.03
2023-03-21T14:25:44.304Z,100799.66
2023-03-21T14:28:18.032Z,100798.41
2023-03-21T14:30:45.970Z,100802.84
2023-03-21T14:33:18.553Z,100788.81
2023-03-21T14:35:47.482Z,100797.41
2023-03-21T14:38:23.489Z,100785.69
2023-03-21T14:40:53.575Z,100783.38
2023-03-21T14:43:22.540Z,100777.66
2023-03-21T14:45:56.138Z,100787.84
2023-03-21T14:48:31.413Z,100777.66
2023-03-21T14:51:03.731Z,100776.13
2023-03-21T14:53:37.725Z,100773.53
2023-03-21T14:56:19.025Z,100774.81
2023-03-21T14:58:47.040Z,100763.66
2023-03-21T15:01:25.779Z,100763.38
2023-03-21T15:03:52.996Z,100754.78
2023-03-21T15:06:19.690Z,100769.38
2023-03-21T15:08:58.431Z,100765.25
2023-03-21T15:11:37.817Z,100763.66
2023-03-21T15:14:13.141Z,100756.66
2023-03-21T15:16:40.378Z,100762.66
2023-03-21T15:19:10.497Z,100755.66
2023-03-21T15:21:47.864Z,100750.44
2023-03-21T15:24:27.124Z,100745.50
2023-03-21T15:27:02.590Z,100744.22
2023-03-21T15:29:30.259Z,100742.13
2023-03-21T15:31:56.875Z,100744.22
2023-03-21T15:34:27.888Z,100742.94
2023-03-21T15:37:05.526Z,100748.66
2023-03-21T15:39:35.863Z,100742.94
2023-03-21T15:42:22.788Z,100734.06
2023-03-21T15:44:53.910Z,100735.63
2023-03-21T15:47:50.499Z,100736.63
2023-03-21T15:50:27.850Z,100735.63
2023-03-21T15:52:55.917Z,100743.44
2023-03-21T15:55:27.841Z,100740.75
2023-03-21T15:58:01.048Z,100743.94
2023-03-21T16:00:38.549Z,100734.25
2023-03-21T16:03:30.539Z,100740.75
2023-03-21T16:06:15.362Z,100735.84
2023-03-21T16:08:45.921Z,100737.41
2023-03-21T16:11:38.560Z,100729.84
2023-03-21T16:14:05.077Z,100735.03
2023-03-21T16:16:32.092Z,100733.47
2023-03-21T16:19:00.372Z,100730.63
2023-03-21T16:21:31.643Z,100729.03
2023-03-21T16:23:58.248Z,100723.59
2023-03-21T16:26:29.282Z,100716.31
2023-03-21T16:28:56.140Z,100722.03
2023-03-21T16:31:28.419Z,100724.91
2023-03-21T16:33:54.886Z,100720.16
2023-03-21T16:36:27.588Z,100717.31
2023-03-21T16:38:55.033Z,100718.88
2023-03-21T16:41:23.399Z,100718.88
2023-03-21T16:43:50.493Z,100711.59
2023-03-21T16:46:20.857Z,100710.81
2023-03-21T16:48:50.157Z,100711.59
2023-03-21T16:51:20.295Z,100710.81
2023-03-21T16:53:48.350Z,100707.63
2023-03-21T16:56:21.653Z,100710.00
2023-03-21T16:58:48.444Z,100714.16
2023-03-21T17:01:20.149Z,100706.84
2023-03-21T17:03:49.725Z,100706.84
2023-03-21T17:06:19.263Z,100703.22
2023-03-21T17:08:46.271Z,100709.13
2023-03-21T17:11:16.475Z,100709.59
2023-03-21T17:13:43.951Z,100709.44
2023-03-21T17:16:13.035Z,100704.97
2023-03-21T17:18:40.288Z,100707.56
2023-03-21T17:21:13.572Z,100705.47
2023-03-21T17:23:40.223Z,100697.38
2023-03-21T17:26:10.658Z,100698.69
2023-03-21T17:28:38.469Z,100698.69
2023-03-21T17:31:12.294Z,100693.66
2023-03-21T17:33:39.124Z,100696.81
2023-03-21T17:36:05.888Z,100705.69
2023-03-21T17:38:32.316Z,100693.66
2023-03-21T17:40:59.653Z,100708.25
2023-03-21T17:43:26.157Z,100694.94
2023-03-21T17:45:52.618Z,100688.63
2023-03-21T17:48:19.131Z,100697.81
2023-03-21T17:50:46.102Z,100696.22
2023-03-21T17:53:12.740Z,100700.66
2023-03-21T17:55:39.992Z,100697.19
2023-03-21T17:58:06.493Z,100694.63
2023-03-21T18:00:33.509Z,100697.19
2023-03-21T18:03:00.193Z,100700.56
2023-03-21T18:05:27.472Z,100709.94
2023-03-21T18:08:11.975Z,100707.88
2023-03-21T18:10:40.602Z,100711.22
2023-03-21T18:13:07.670Z,100715.34
2023-03-21T18:15:35.971Z,100708.06
2023-03-21T18:18:04.451Z,100706.47
2023-03-21T18:20:53.668Z,100711.44
2023-03-21T18:23:19.303Z,100704.91
2023-03-21T18:25:45.800Z,100709.06
2023-03-21T18:28:12.932Z,100703.47
2023-03-21T18:33:27.404Z,100692.84
2023-03-21T18:35:59.135Z,100697.75
2023-03-21T18:38:28.931Z,100692.84
2023-03-21T18:40:56.252Z,100697.00
2023-03-21T18:46:09.320Z,100700.06
2023-03-21T18:48:36.190Z,100704.50
2023-03-21T18:51:03.311Z,100706.56
2023-03-21T18:53:29.910Z,100709.13
2023-03-21T18:55:57.490Z,100707.84
2023-03-21T18:58:24.750Z,100701.81
2023-03-21T19:00:53.399Z,100704.09
2023-03-21T19:03:34.313Z,100698.97
2023-03-21T19:06:04.702Z,100691.69
2023-03-21T19:08:33.946Z,100692.66
2023-03-21T19:11:04.330Z,100681.59
2023-03-21T19:13:33.437Z,100696.78
2023-03-21T19:16:02.340Z,100696.03
2023-03-21T19:18:50.098Z,100694.44
2023-03-21T19:21:17.032Z,100690.50
2023-03-21T19:24:20.790Z,100690.50
2023-03-21T19:26:30.384Z,100693.03
2023-03-21T19:28:57.337Z,100691.50
2023-03-21T19:31:24.331Z,100677.84
2023-03-21T19:33:51.048Z,100690.38
2023-03-21T19:36:22.520Z,100690.09
2023-03-21T19:38:49.711Z,100696.88
2023-03-21T19:41:16.592Z,100692.47
2023-03-21T19:43:53.698Z,100699.16
2023-03-21T19:46:25.022Z,100697.88
2023-03-21T19:48:56.109Z,100696.31
2023-03-21T19:51:29.476Z,100692.84
2023-03-21T19:53:57.295Z,100690.31
2023-03-21T19:56:27.124Z,100688.72
2023-03-21T19:58:54.787Z,100673.34
2023-03-21T20:01:21.866Z,100668.72
2023-03-21T20:03:48.411Z,100669.97
2023-03-21T20:06:14.865Z,100672.06
2023-03-21T20:11:27.960Z,100671.78
2023-03-21T20:13:54.412Z,100666.53
2023-03-21T20:16:21.349Z,100657.38
2023-03-21T20:18:47.854Z,100662.09
2023-03-21T20:21:17.962Z,100662.38
2023-03-21T20:23:49.186Z,100658.75
2023-03-21T20:26:16.287Z,100672.25
2023-03-21T20:28:55.952Z,100663.09
2023-03-21T20:31:29.541Z,100658.47
2023-03-21T20:33:56.087Z,100664.66
2023-03-21T20:36:38.590Z,100666.22
2023-03-21T20:39:07.087Z,100659.94
2023-03-21T20:41:33.755Z,100660.72
2023-03-21T20:46:49.798Z,100648.72
2023-03-21T20:49:16.364Z,100651.06
2023-03-21T20:54:29.881Z,100638.06
2023-03-21T20:56:57.136Z,100649.78
2023-03-21T20:59:27.757Z,100649.19
2023-03-21T21:01:56.162Z,100648.72
2023-03-21T21:04:42.804Z,100661.50
2023-03-21T21:07:15.699Z,100653.44
2023-03-21T21:09:44.598Z,100655.50
2023-03-21T21:12:12.457Z,100648.50
2023-03-21T21:14:39.156Z,100646.91
2023-03-21T21:17:23.207Z,100644.56
2023-03-21T21:19:52.550Z,100647.41
2023-03-21T21:22:19.253Z,100644.88
2023-03-21T21:24:45.842Z,100633.94
2023-03-21T21:27:12.389Z,100636.31
2023-03-21T21:29:38.838Z,100635.97
2023-03-21T21:32:05.431Z,100637.06
2023-03-21T21:34:32.345Z,100630.59
2023-03-21T21:36:58.868Z,100622.50
2023-03-21T21:39:26.542Z,100622.50
2023-03-21T21:41:53.838Z,100616.28
2023-03-21T21:44:20.622Z,100622.00
2023-03-21T21:46:47.323Z,100612.06
2023-03-21T21:49:13.804Z,100619.16
2023-03-21T21:51:41.861Z,100618.06
2023-03-21T21:54:08.729Z,100615.50
2023-03-21T21:56:37.825Z,100599.03
2023-03-21T21:59:04.711Z,100609.50
2023-03-21T22:01:34.576Z,100618.34
2023-03-21T22:04:06.452Z,100603.78
2023-03-21T22:06:34.315Z,100612.63
2023-03-21T22:09:00.986Z,100624.06
2023-03-21T22:11:27.727Z,100612.06
2023-03-21T22:13:54.255Z,100612.06
2023-03-21T22:16:20.905Z,100614.72
2023-03-21T22:18:47.585Z,100615.50
2023-03-21T22:21:14.061Z,100606.03
2023-03-21T22:23:43.369Z,100618.06
2023-03-21T22:26:10.544Z,100611.06
2023-03-21T22:28:40.149Z,100609.50
2023-03-21T22:31:09.727Z,100603.78
2023-03-21T22:33:36.302Z,100607.91
2023-03-21T22:36:03.349Z,100607.91
2023-03-21T22:38:29.764Z,100602.19
2023-03-21T22:40:57.127Z,100590.75
2023-03-21T22:43:23.967Z,100594.59
2023-03-21T22:45:51.230Z,100587.81
2023-03-21T22:48:17.911Z,100593.31
2023-03-21T22:50:44.918Z,100589.19
2023-03-21T22:53:11.450Z,100585.44
2023-03-21T22:55:38.751Z,100587.63
2023-03-21T22:58:05.360Z,100588.59
2023-03-21T23:00:32.570Z,100571.66
2023-03-21T23:02:59.852Z,100590.19
2023-03-21T23:05:26.661Z,100566.16
2023-03-21T23:07:53.692Z,100591.44
2023-03-21T23:10:20.445Z,100598.44
2023-03-21T23:12:47.037Z,100591.16
2023-03-21T23:15:13.523Z,100588.03
2023-03-21T23:17:40.067Z,100581.72
2023-03-21T23:20:08.714Z,100583.28
2023-03-21T23:22:36.321Z,100589.00
2023-03-21T23:25:03.721Z,100587.41
2023-03-21T23:27:30.416Z,100603.78
2023-03-21T23:29:57.436Z,100588.91
2023-03-21T23:32:24.248Z,100583.66
2023-03-21T23:34:50.709Z,100588.13
2023-03-21T23:37:17.484Z,100563.38
2023-03-21T23:39:45.308Z,100572.16
2023-03-21T23:42:12.099Z,100569.88
2023-03-21T23:44:38.546Z,100586.25
2023-03-21T23:47:05.343Z,100583.09
2023-03-21T23:49:33.917Z,100581.50
2023-03-21T23:52:00.656Z,100575.03
2023-03-21T23:54:27.239Z,100572.66
2023-03-21T23:56:53.701Z,100573.16
2023-03-21T23:59:20.100Z,100575.19
